createdAt,value
2019-02-19T00:02:39.018Z,102169.28
2019-02-19T00:05:42.491Z,102175.36
2019-02-19T00:08:45.604Z,102182.24
2019-02-19T00:11:48.805Z,102181.81
2019-02-19T00:14:52.017Z,102179.91
2019-02-19T00:17:55.191Z,102179.69
2019-02-19T00:20:58.391Z,102183.69
2019-02-19T00:24:01.479Z,102185.63
2019-02-19T00:27:04.671Z,102192.28
2019-02-19T00:30:08.149Z,102184.73
2019-02-19T00:33:11.276Z,102182.72
2019-02-19T00:36:14.478Z,102185.51
2019-02-19T00:39:17.659Z,102186.96
2019-02-19T00:42:21.067Z,102184.65
2019-02-19T00:45:24.243Z,102183.56
2019-02-19T00:48:27.490Z,102183.36
2019-02-19T00:51:30.634Z,102185.95
2019-02-19T00:54:33.838Z,102183.76
2019-02-19T00:57:37.023Z,102183.35
2019-02-19T01:00:40.226Z,102196.14
2019-02-19T01:03:43.435Z,102197.00
2019-02-19T01:06:46.632Z,102195.54
2019-02-19T01:09:49.898Z,102199.13
2019-02-19T01:12:53.379Z,102196.48
2019-02-19T01:15:56.511Z,102189.85
2019-02-19T01:18:59.700Z,102189.60
2019-02-19T01:22:02.892Z,102183.51
2019-02-19T01:25:07.331Z,102185.70
2019-02-19T01:28:10.627Z,102175.44
2019-02-19T01:31:13.803Z,102174.96
2019-02-19T01:34:17.100Z,102169.94
2019-02-19T01:37:20.287Z,102165.62
2019-02-19T01:40:23.500Z,102166.03
2019-02-19T01:43:26.812Z,102156.93
2019-02-19T01:46:30.145Z,102158.35
2019-02-19T01:49:33.385Z,102155.26
2019-02-19T01:52:36.634Z,102153.32
2019-02-19T01:55:39.768Z,102158.26
2019-02-19T01:58:42.966Z,102153.67
2019-02-19T02:01:46.179Z,102154.59
2019-02-19T02:04:49.251Z,102158.82
2019-02-19T02:07:52.443Z,102161.02
2019-02-19T02:10:55.647Z,102157.66
2019-02-19T02:13:58.828Z,102151.90
2019-02-19T02:17:02.047Z,102157.15
2019-02-19T02:20:05.775Z,102161.55
2019-02-19T02:23:08.952Z,102161.85
2019-02-19T02:26:12.124Z,102161.35
2019-02-19T02:29:15.315Z,102153.84
2019-02-19T02:32:18.524Z,102165.16
2019-02-19T02:35:21.729Z,102160.59
2019-02-19T02:38:24.905Z,102160.20
2019-02-19T02:41:28.114Z,102165.53
2019-02-19T02:44:31.275Z,102164.30
2019-02-19T02:47:34.482Z,102169.55
2019-02-19T02:50:37.573Z,102172.44
2019-02-19T02:53:40.774Z,102172.56
2019-02-19T02:56:43.867Z,102171.94
2019-02-19T02:59:47.055Z,102171.52
2019-02-19T03:02:50.249Z,102170.37
2019-02-19T03:06:05.975Z,102170.07
2019-02-19T03:09:09.123Z,102162.44
2019-02-19T03:12:12.424Z,102175.78
2019-02-19T03:15:15.607Z,102173.79
2019-02-19T03:18:18.708Z,102169.05
2019-02-19T03:21:21.806Z,102174.14
2019-02-19T03:24:25.116Z,102178.18
2019-02-19T03:27:28.317Z,102181.70
2019-02-19T03:30:31.481Z,102176.66
2019-02-19T03:33:34.669Z,102176.13
2019-02-19T03:36:37.868Z,102171.67
2019-02-19T03:39:41.062Z,102178.92
2019-02-19T03:42:44.163Z,102181.60
2019-02-19T03:45:47.369Z,102192.65
2019-02-19T03:48:50.552Z,102192.68
2019-02-19T03:51:53.748Z,102185.84
2019-02-19T03:54:56.923Z,102190.17
2019-02-19T03:58:00.032Z,102182.40
2019-02-19T04:01:03.133Z,102187.20
2019-02-19T04:04:06.303Z,102176.89
2019-02-19T04:07:09.523Z,102181.71
2019-02-19T04:10:12.714Z,102174.80
2019-02-19T04:13:15.917Z,102175.69
2019-02-19T04:16:21.354Z,102174.31
2019-02-19T04:19:22.383Z,102181.48
2019-02-19T04:22:25.480Z,102188.02
2019-02-19T04:25:28.693Z,102180.55
2019-02-19T04:28:31.864Z,102181.08
2019-02-19T04:31:34.992Z,102184.85
2019-02-19T04:34:38.088Z,102185.89
2019-02-19T04:37:41.252Z,102182.10
2019-02-19T04:40:44.441Z,102187.75
2019-02-19T04:43:47.659Z,102193.01
2019-02-19T04:46:50.848Z,102188.06
2019-02-19T04:49:54.015Z,102194.19
2019-02-19T04:52:57.295Z,102191.66
2019-02-19T04:56:00.406Z,102187.45
2019-02-19T04:59:03.609Z,102191.17
2019-02-19T05:02:06.801Z,102195.41
2019-02-19T05:05:09.912Z,102195.04
2019-02-19T05:08:13.075Z,102192.67
2019-02-19T05:11:16.268Z,102200.44
2019-02-19T05:14:19.462Z,102198.50
2019-02-19T05:17:22.584Z,102207.02
2019-02-19T05:20:25.772Z,102208.81
2019-02-19T05:23:28.951Z,102208.00
2019-02-19T05:26:32.143Z,102209.66
2019-02-19T05:29:35.362Z,102206.97
2019-02-19T05:32:38.551Z,102214.55
2019-02-19T05:35:41.720Z,102215.69
2019-02-19T05:38:44.931Z,102214.37
2019-02-19T05:41:48.135Z,102213.08
2019-02-19T05:44:51.346Z,102215.83
2019-02-19T05:47:54.530Z,102216.71
2019-02-19T05:50:57.752Z,102214.82
2019-02-19T05:54:00.914Z,102207.89
2019-02-19T05:57:04.083Z,102210.39
2019-02-19T06:00:07.790Z,102211.86
2019-02-19T06:03:11.004Z,102211.18
2019-02-19T06:06:14.287Z,102218.83
2019-02-19T06:09:17.503Z,102224.45
2019-02-19T06:12:20.666Z,102229.22
2019-02-19T06:15:23.889Z,102228.31
2019-02-19T06:18:27.158Z,102230.02
2019-02-19T06:21:30.274Z,102235.04
2019-02-19T06:24:33.362Z,102236.46
2019-02-19T06:27:36.542Z,102237.97
2019-02-19T06:30:39.648Z,102242.93
2019-02-19T06:33:42.861Z,102239.94
2019-02-19T06:36:46.134Z,102240.64
2019-02-19T06:39:49.323Z,102242.95
2019-02-19T06:42:52.515Z,102242.36
2019-02-19T06:45:55.697Z,102247.43
2019-02-19T06:48:58.903Z,102250.40
2019-02-19T06:52:02.104Z,102254.98
2019-02-19T06:55:05.814Z,102259.10
2019-02-19T06:58:08.995Z,102264.38
2019-02-19T07:01:12.116Z,102266.01
2019-02-19T07:04:19.501Z,102267.09
2019-02-19T07:07:22.681Z,102268.41
2019-02-19T07:10:25.874Z,102262.17
2019-02-19T07:13:29.119Z,102253.32
2019-02-19T07:16:32.276Z,102253.50
2019-02-19T07:19:35.561Z,102257.87
2019-02-19T07:22:38.759Z,102258.89
2019-02-19T07:25:41.955Z,102254.39
2019-02-19T07:28:45.168Z,102255.10
2019-02-19T07:31:48.363Z,102264.16
2019-02-19T07:34:51.634Z,102274.70
2019-02-19T07:37:54.784Z,102283.39
2019-02-19T07:40:58.019Z,102285.77
2019-02-19T07:44:01.210Z,102290.89
2019-02-19T07:47:04.319Z,102278.39
2019-02-19T07:50:08.014Z,102275.79
2019-02-19T07:53:11.127Z,102281.71
2019-02-19T07:56:14.407Z,102291.32
2019-02-19T07:59:17.725Z,102290.22
2019-02-19T08:02:21.011Z,102293.91
2019-02-19T08:05:24.302Z,102300.53
2019-02-19T08:08:27.519Z,102301.26
2019-02-19T08:11:30.683Z,102309.21
2019-02-19T08:14:33.877Z,102310.39
2019-02-19T08:17:37.183Z,102313.60
2019-02-19T08:20:40.387Z,102324.52
2019-02-19T08:23:43.668Z,102324.54
2019-02-19T08:26:46.848Z,102324.67
2019-02-19T08:29:49.954Z,102331.24
2019-02-19T08:32:53.322Z,102334.98
2019-02-19T08:35:56.448Z,102331.85
2019-02-19T08:38:59.641Z,102335.90
2019-02-19T08:42:02.831Z,102334.25
2019-02-19T08:45:06.144Z,102334.54
2019-02-19T08:48:09.427Z,102338.25
2019-02-19T08:51:12.640Z,102345.52
2019-02-19T08:54:15.930Z,102345.30
2019-02-19T08:57:19.195Z,102353.26
2019-02-19T09:00:22.213Z,102358.46
2019-02-19T09:03:25.494Z,102362.44
2019-02-19T09:06:28.699Z,102369.25
2019-02-19T09:09:31.896Z,102363.81
2019-02-19T09:12:35.083Z,102363.37
2019-02-19T09:15:38.300Z,102366.67
2019-02-19T09:18:41.485Z,102372.77
2019-02-19T09:21:44.668Z,102370.11
2019-02-19T09:24:47.873Z,102377.40
2019-02-19T09:27:51.067Z,102381.40
2019-02-19T09:30:54.256Z,102384.41
2019-02-19T09:33:57.447Z,102383.35
2019-02-19T09:37:00.539Z,102387.50
2019-02-19T09:40:04.070Z,102393.39
2019-02-19T09:43:07.238Z,102378.01
2019-02-19T09:46:10.427Z,102379.53
2019-02-19T09:49:13.611Z,102375.03
2019-02-19T09:52:16.706Z,102379.22
2019-02-19T09:55:19.812Z,102382.77
2019-02-19T09:58:22.908Z,102383.65
2019-02-19T10:01:28.095Z,102396.04
2019-02-19T10:04:29.282Z,102399.25
2019-02-19T10:07:32.498Z,102395.64
2019-02-19T10:10:35.691Z,102395.46
2019-02-19T10:13:38.879Z,102408.05
2019-02-19T10:16:42.260Z,102407.25
2019-02-19T10:19:45.276Z,102410.71
2019-02-19T10:22:48.562Z,102401.27
2019-02-19T10:25:51.863Z,102402.18
2019-02-19T10:28:55.033Z,102386.66
2019-02-19T10:31:58.131Z,102379.19
2019-02-19T10:35:01.211Z,102395.04
2019-02-19T10:38:04.323Z,102415.12
2019-02-19T10:41:07.516Z,102424.67
2019-02-19T10:44:10.723Z,102424.23
2019-02-19T10:47:13.892Z,102426.62
2019-02-19T10:50:17.006Z,102429.47
2019-02-19T10:53:20.196Z,102425.09
2019-02-19T10:56:23.543Z,102428.86
2019-02-19T10:59:26.696Z,102428.84
2019-02-19T11:02:29.985Z,102424.57
2019-02-19T11:05:33.084Z,102419.92
2019-02-19T11:08:36.167Z,102419.49
2019-02-19T11:11:39.448Z,102421.02
2019-02-19T11:14:42.597Z,102420.08
2019-02-19T11:17:45.851Z,102417.72
2019-02-19T11:20:49.047Z,102414.13
2019-02-19T11:23:52.235Z,102420.08
2019-02-19T11:26:55.531Z,102416.41
2019-02-19T11:29:58.727Z,102409.48
2019-02-19T11:33:01.957Z,102413.25
2019-02-19T11:36:05.142Z,102409.74
2019-02-19T11:39:08.375Z,102403.96
2019-02-19T11:42:11.510Z,102401.12
2019-02-19T11:45:14.729Z,102402.77
2019-02-19T11:48:19.188Z,102399.46
2019-02-19T11:51:21.295Z,102397.58
2019-02-19T11:54:24.495Z,102399.19
2019-02-19T11:57:27.659Z,102394.25
2019-02-19T12:00:34.531Z,102388.96
2019-02-19T12:03:37.776Z,102396.97
2019-02-19T12:06:40.978Z,102394.08
2019-02-19T12:09:44.178Z,102395.90
2019-02-19T12:12:47.351Z,102392.65
2019-02-19T12:15:50.543Z,102398.21
2019-02-19T12:18:53.613Z,102396.47
2019-02-19T12:21:56.730Z,102398.39
2019-02-19T12:24:59.916Z,102382.64
2019-02-19T12:28:03.013Z,102380.81
2019-02-19T12:31:06.210Z,102377.91
2019-02-19T12:34:09.400Z,102375.17
2019-02-19T12:37:12.583Z,102372.07
2019-02-19T12:40:15.787Z,102380.54
2019-02-19T12:43:18.998Z,102383.63
2019-02-19T12:46:22.178Z,102378.08
2019-02-19T12:49:25.267Z,102371.56
2019-02-19T12:52:28.496Z,102369.02
2019-02-19T12:55:31.662Z,102364.60
2019-02-19T12:58:34.843Z,102361.20
2019-02-19T13:01:37.939Z,102364.91
2019-02-19T13:04:41.068Z,102361.66
2019-02-19T13:07:44.243Z,102362.83
2019-02-19T13:10:47.543Z,102364.87
2019-02-19T13:13:50.719Z,102363.65
2019-02-19T13:16:53.870Z,102364.67
2019-02-19T13:19:57.008Z,102360.60
2019-02-19T13:23:00.223Z,102357.85
2019-02-19T13:26:03.291Z,102354.58
2019-02-19T13:29:06.587Z,102357.23
2019-02-19T13:32:10.392Z,102358.99
2019-02-19T13:35:13.705Z,102355.78
2019-02-19T13:38:16.915Z,102351.20
2019-02-19T13:41:20.088Z,102348.90
2019-02-19T13:44:23.287Z,102345.51
2019-02-19T13:47:26.478Z,102345.31
2019-02-19T13:50:29.798Z,102346.78
2019-02-19T13:53:37.838Z,102342.17
2019-02-19T13:56:40.986Z,102335.69
2019-02-19T13:59:44.221Z,102332.23
2019-02-19T14:02:47.379Z,102343.13
2019-02-19T14:05:50.553Z,102335.81
2019-02-19T14:08:53.641Z,102329.11
2019-02-19T14:11:56.764Z,102334.60
2019-02-19T14:15:04.723Z,102336.82
2019-02-19T14:18:08.735Z,102338.73
2019-02-19T14:21:24.168Z,102339.57
2019-02-19T14:24:46.730Z,102336.11
2019-02-19T14:27:55.191Z,102328.21
2019-02-19T14:31:07.258Z,102321.99
2019-02-19T14:38:02.195Z,102317.22
2019-02-19T14:42:11.763Z,102312.05
2019-02-19T14:45:20.931Z,102310.29
2019-02-19T14:48:31.239Z,102314.63
2019-02-19T14:51:39.855Z,102317.13
2019-02-19T14:54:47.215Z,102321.30
2019-02-19T14:57:55.412Z,102326.53
2019-02-19T15:01:03.934Z,102323.52
2019-02-19T15:04:19.320Z,102334.19
2019-02-19T15:11:10.163Z,102329.05
2019-02-19T15:14:29.739Z,102333.42
2019-02-19T15:17:45.118Z,102329.47
2019-02-19T15:21:52.459Z,102336.68
2019-02-19T15:25:59.614Z,102328.89
2019-02-19T15:29:07.760Z,102335.13
2019-02-19T15:32:15.927Z,102327.13
2019-02-19T15:35:31.170Z,102325.18
2019-02-19T15:38:40.338Z,102331.79
2019-02-19T15:41:49.651Z,102327.92
2019-02-19T15:44:57.032Z,102327.68
2019-02-19T15:48:04.334Z,102324.81
2019-02-19T15:51:15.522Z,102336.00
2019-02-19T16:00:05.030Z,102331.32
2019-02-19T16:03:12.334Z,102331.99
2019-02-19T16:06:20.951Z,102331.92
2019-02-19T16:09:30.128Z,102334.36
2019-02-19T16:12:43.409Z,102336.65
2019-02-19T16:15:50.697Z,102331.40
2019-02-19T16:18:58.843Z,102337.78
2019-02-19T16:22:06.206Z,102345.81
2019-02-19T16:25:16.567Z,102343.34
2019-02-19T16:28:35.150Z,102342.13
2019-02-19T16:31:46.427Z,102345.69
2019-02-19T16:34:53.802Z,102343.01
2019-02-19T16:38:02.371Z,102350.15
2019-02-19T16:41:13.719Z,102353.91
2019-02-19T16:48:58.595Z,102361.11
2019-02-19T16:53:04.763Z,102365.80
2019-02-19T16:56:12.122Z,102364.74
2019-02-19T16:59:35.525Z,102363.67
2019-02-19T17:02:44.724Z,102368.25
2019-02-19T17:05:52.124Z,102371.89
2019-02-19T17:09:01.366Z,102367.90
2019-02-19T17:12:08.674Z,102374.35
2019-02-19T17:15:17.211Z,102379.02
2019-02-19T17:18:30.574Z,102383.98
2019-02-19T17:21:44.920Z,102391.50
2019-02-19T17:25:54.189Z,102394.05
2019-02-19T17:29:09.473Z,102399.43
2019-02-19T17:32:27.783Z,102399.20
2019-02-19T17:35:52.547Z,102408.20
2019-02-19T17:38:59.769Z,102409.46
2019-02-19T17:42:09.033Z,102412.82
2019-02-19T17:45:17.493Z,102414.20
2019-02-19T17:48:24.883Z,102416.01
2019-02-19T17:51:37.276Z,102418.36
2019-02-19T17:54:47.667Z,102427.26
2019-02-19T17:57:54.957Z,102426.84
2019-02-19T18:02:05.455Z,102430.00
2019-02-19T18:05:12.819Z,102430.71
2019-02-19T18:12:04.751Z,102437.61
2019-02-19T18:15:27.179Z,102433.71
2019-02-19T18:18:35.380Z,102442.62
2019-02-19T18:21:38.463Z,102445.07
2019-02-19T18:24:41.750Z,102440.99
2019-02-19T18:27:44.948Z,102447.03
2019-02-19T18:30:48.167Z,102449.77
2019-02-19T18:33:51.349Z,102456.90
2019-02-19T18:36:54.667Z,102458.35
2019-02-19T18:39:57.945Z,102459.68
2019-02-19T18:43:01.040Z,102454.16
2019-02-19T18:46:04.222Z,102457.02
2019-02-19T18:49:07.468Z,102454.31
2019-02-19T18:52:10.713Z,102454.99
2019-02-19T18:55:13.911Z,102461.88
2019-02-19T18:58:17.219Z,102467.48
2019-02-19T19:01:20.403Z,102462.09
2019-02-19T19:04:23.607Z,102461.07
2019-02-19T19:07:26.875Z,102465.94
2019-02-19T19:10:30.015Z,102467.36
2019-02-19T19:13:33.188Z,102477.49
2019-02-19T19:16:36.400Z,102477.34
2019-02-19T19:19:39.553Z,102472.31
2019-02-19T19:22:42.684Z,102478.65
2019-02-19T19:25:45.844Z,102483.30
2019-02-19T19:28:49.066Z,102483.98
2019-02-19T19:31:52.359Z,102486.52
2019-02-19T19:34:55.630Z,102486.41
2019-02-19T19:37:58.895Z,102496.25
2019-02-19T19:41:02.144Z,102490.61
2019-02-19T19:44:05.329Z,102500.57
2019-02-19T19:47:08.516Z,102500.58
2019-02-19T19:50:11.667Z,102507.18
2019-02-19T19:53:14.808Z,102509.53
2019-02-19T19:56:18.297Z,102510.57
2019-02-19T19:59:21.438Z,102518.92
2019-02-19T20:02:24.639Z,102515.72
2019-02-19T20:05:27.786Z,102520.45
2019-02-19T20:08:31.051Z,102521.24
2019-02-19T20:11:34.185Z,102517.96
2019-02-19T20:14:37.289Z,102517.69
2019-02-19T20:17:40.512Z,102519.10
2019-02-19T20:20:43.623Z,102529.15
2019-02-19T20:23:46.752Z,102526.00
2019-02-19T20:26:49.956Z,102528.37
2019-02-19T20:29:53.173Z,102531.71
2019-02-19T20:32:56.335Z,102540.31
2019-02-19T20:35:59.531Z,102539.80
2019-02-19T20:39:02.736Z,102541.38
2019-02-19T20:42:05.924Z,102536.84
2019-02-19T20:45:09.419Z,102544.58
2019-02-19T20:48:12.521Z,102550.69
2019-02-19T20:51:15.721Z,102548.65
2019-02-19T20:54:18.808Z,102549.19
2019-02-19T20:57:21.928Z,102554.85
2019-02-19T21:00:25.225Z,102551.90
2019-02-19T21:03:28.392Z,102552.77
2019-02-19T21:06:31.589Z,102555.18
2019-02-19T21:09:43.380Z,102556.22
2019-02-19T21:12:37.969Z,102559.91
2019-02-19T21:15:41.159Z,102558.56
2019-02-19T21:18:44.347Z,102563.75
2019-02-19T21:21:47.562Z,102562.02
2019-02-19T21:24:50.739Z,102564.25
2019-02-19T21:27:54.046Z,102557.09
2019-02-19T21:30:57.135Z,102559.66
2019-02-19T21:34:00.226Z,102563.75
2019-02-19T21:37:03.419Z,102566.51
2019-02-19T21:40:07.090Z,102569.92
2019-02-19T21:43:10.231Z,102569.56
2019-02-19T21:46:13.419Z,102570.35
2019-02-19T21:49:16.611Z,102575.30
2019-02-19T21:52:20.745Z,102574.69
2019-02-19T21:55:24.011Z,102573.85
2019-02-19T21:58:27.128Z,102571.14
2019-02-19T22:01:30.441Z,102569.42
2019-02-19T22:04:33.626Z,102566.56
2019-02-19T22:07:36.811Z,102570.59
2019-02-19T22:10:39.986Z,102571.11
2019-02-19T22:13:43.359Z,102572.43
2019-02-19T22:16:46.591Z,102572.76
2019-02-19T22:19:49.775Z,102578.37
2019-02-19T22:22:52.994Z,102580.79
2019-02-19T22:25:56.191Z,102577.59
2019-02-19T22:28:59.368Z,102579.11
2019-02-19T22:32:02.659Z,102579.37
2019-02-19T22:35:06.171Z,102584.44
2019-02-19T22:38:09.292Z,102586.99
2019-02-19T22:41:12.434Z,102587.10
2019-02-19T22:44:15.560Z,102584.93
2019-02-19T22:47:18.831Z,102587.91
2019-02-19T22:50:21.973Z,102588.84
2019-02-19T22:53:30.467Z,102587.77
2019-02-19T22:56:36.472Z,102590.67
2019-02-19T22:59:39.622Z,102593.53
2019-02-19T23:02:42.766Z,102594.54
2019-02-19T23:05:45.925Z,102595.05
2019-02-19T23:08:50.120Z,102593.31
2019-02-19T23:11:53.223Z,102597.12
2019-02-19T23:14:56.320Z,102592.21
2019-02-19T23:17:59.418Z,102596.81
2019-02-19T23:21:03.426Z,102598.96
2019-02-19T23:24:06.579Z,102599.66
2019-02-19T23:27:09.791Z,102601.71
2019-02-19T23:30:12.990Z,102599.85
2019-02-19T23:33:16.247Z,102599.05
2019-02-19T23:36:23.624Z,102599.43
2019-02-19T23:39:26.876Z,102601.32
2019-02-19T23:42:30.074Z,102601.55
2019-02-19T23:45:33.275Z,102605.40
2019-02-19T23:48:36.459Z,102607.09
2019-02-19T23:51:39.639Z,102611.34
2019-02-19T23:54:42.845Z,102608.06
2019-02-19T23:57:46.045Z,102610.39
